Nespelem, WA (99155)

4:03 PM PDT on April 25, 2015 (GMT -0700)
RAWS | | Change Station
CLOSE
Current Station
Personal Weather Station
Location: Okanogan, WA
Elevation: 2720 ft
Nearby Weather Stations

Elev 2720 ft 48.26 °N, 119.52 °W | Updated 55 minutes ago

Overcast
Overcast
45 °F
Feels Like 42 °F
N
5
Wind Variable Wind from NNE
Gusts 16.0 mph

Today
High -- | Low -- °F
--% Chance of Precip.
Yesterday
High -- | Low -- °F
Precip. -- in
5:48 AM 8:02 PM
Waxing Crescent, 50% visible
Pressure 29.90 in
Visibility 10.0 miles
Clouds Clear
Windchill 42 °F
Dew Point 35 °F
Humidity 67%
Rainfall in
Snow Depth Not available.
UV 5 out of 12
Pollen 9.00 out of 12
Air Quality Not available.
Flu Activity Regional
METAR KOMK 252253Z AUTO 30005KT 10SM CLR 12/M01 A2989 RMK AO2 SLP125 T01171006 $

More Conditions Fewer Conditions

Pressure 29.90 in
Visibility 10.0 miles
Clouds Clear
Windchill 42 °F
Dew Point 35 °F
Humidity 67%
Rainfall in
Snow Depth Not available.
UV 5 out of 12
Pollen 9.00 out of 12
Air Quality Not available.
Flu Activity Regional
METAR KOMK 252253Z AUTO 30005KT 10SM CLR 12/M01 A2989 RMK AO2 SLP125 T01171006 $

More Conditions Fewer Conditions

10-Day Weather Forecast

Almanac

Astronomy

Apr. 25, 2015 Rise Set
Actual Time
Civil Twilight
Nautical Twilight
Astronomical Twilight
Moon
Length of Visible Light
Length of Day
Tomorrow will be .
, % of the Moon is Illuminated

Today's Extremes

State Highs State Lows

Community

WunderPhotos

Upload Photos

1,816,842 photos uploaded!

WunderBlogs® & News

Nearby

Air Quality

  Air Quality AQ Index Pollutant
Not available.

Snow Depth

Station Depth Elevation

Earthquake Activity

City Distance Mag. Time & Date
Minimum magnitude displayed is 2.5.

Coastal Water Temperatures

Place Temperature

Stations

Nearby Weather Stations

Station Location Temp. Windchill Dew Point Humidity Wind Precip. Elev Updated Type